Time;durP1;ratioP1;P1;durP2;ratioP2;P2;SDS_P1;SDS_P2;PMS_P1;PMS_P2;Temp;Humidity;BMP_temperature;BMP_pressure;BME280_temperature;BME280_humidity;BME280_pressure;Samples;Min_cycle;Max_cycle;Signal;HPM_P1;HPM_P2
2024/02/13 00:02:02;;;;;;;30.98;13.68;;;;;;;;;;5071705;28;20028;-59
2024/02/13 00:04:30;;;;;;;35.72;14.32;;;;;;;;;;5071275;28;20029;-59
2024/02/13 00:06:56;;;;;;;34.83;14.73;;;;;;;;;;5078245;28;20077;-60
2024/02/13 00:09:22;;;;;;;29.88;14.00;;;;;;;;;;5071631;28;20028;-60
2024/02/13 00:11:50;;;;;;;30.05;12.98;;;;;;;;;;5089300;28;20089;-60
2024/02/13 00:14:16;;;;;;;34.03;13.77;;;;;;;;;;5076934;28;20486;-60
2024/02/13 00:16:44;;;;;;;36.65;14.82;;;;;;;;;;5071369;28;20047;-60
2024/02/13 00:19:11;;;;;;;31.65;13.35;;;;;;;;;;5072301;28;20074;-60
2024/02/13 00:21:37;;;;;;;32.67;14.60;;;;;;;;;;5071891;28;20030;-60
2024/02/13 00:24:03;;;;;;;32.03;13.00;;;;;;;;;;5071570;28;20428;-60
2024/02/13 00:26:29;;;;;;;31.42;15.00;;;;;;;;;;5071785;28;20025;-60
2024/02/13 00:28:55;;;;;;;30.63;12.90;;;;;;;;;;5070636;28;20510;-61
2024/02/13 00:31:21;;;;;;;31.58;12.57;;;;;;;;;;5071029;28;20381;-60
2024/02/13 00:33:48;;;;;;;30.00;12.80;;;;;;;;;;5075462;28;20028;-60
2024/02/13 00:36:15;;;;;;;33.47;13.50;;;;;;;;;;5071379;28;20054;-60
2024/02/13 00:38:43;;;;;;;32.38;13.30;;;;;;;;;;5071705;28;20033;-60
2024/02/13 00:41:09;;;;;;;31.08;13.25;;;;;;;;;;5071093;28;20016;-60
2024/02/13 00:43:36;;;;;;;27.85;13.38;;;;;;;;;;5072436;28;20024;-61
2024/02/13 00:46:02;;;;;;;27.80;12.73;;;;;;;;;;5070995;28;20410;-60
2024/02/13 00:48:30;;;;;;;27.17;12.35;;;;;;;;;;5071102;28;20154;-60
2024/02/13 00:50:56;;;;;;;30.75;12.57;;;;;;;;;;5091542;28;20028;-60
2024/02/13 00:53:22;;;;;;;27.73;12.18;;;;;;;;;;5081223;28;20041;-60
2024/02/13 00:55:49;;;;;;;36.15;14.90;;;;;;;;;;5079028;28;20085;-61
2024/02/13 00:58:16;;;;;;;27.20;11.60;;;;;;;;;;5072140;28;20495;-60
2024/02/13 01:00:42;;;;;;;28.63;12.38;;;;;;;;;;5072117;28;20507;-60
2024/02/13 01:03:10;;;;;;;26.63;12.07;;;;;;;;;;5070661;28;20021;-60
2024/02/13 01:05:40;;;;;;;28.73;13.32;;;;;;;;;;5073484;28;20472;-60
2024/02/13 01:08:06;;;;;;;30.38;13.82;;;;;;;;;;5072686;28;20107;-60
2024/02/13 01:10:32;;;;;;;34.38;12.70;;;;;;;;;;5069442;28;20028;-60
2024/02/13 01:12:59;;;;;;;30.17;12.15;;;;;;;;;;5071138;28;20471;-60
2024/02/13 01:15:26;;;;;;;30.50;13.25;;;;;;;;;;5069562;28;20025;-60
2024/02/13 01:17:52;;;;;;;25.40;11.75;;;;;;;;;;5071485;28;20037;-57
2024/02/13 01:20:18;;;;;;;32.47;12.73;;;;;;;;;;5070722;28;20043;-57
2024/02/13 01:22:44;;;;;;;30.13;13.05;;;;;;;;;;5071748;28;20035;-56
2024/02/13 01:25:13;;;;;;;34.88;14.77;;;;;;;;;;5070732;28;20017;-57
2024/02/13 01:27:40;;;;;;;34.00;13.65;;;;;;;;;;5077698;28;20080;-57
2024/02/13 01:30:09;;;;;;;30.73;13.38;;;;;;;;;;5068127;28;20070;-57
2024/02/13 01:32:35;;;;;;;27.55;12.60;;;;;;;;;;5088099;28;20036;-57
2024/02/13 01:35:01;;;;;;;33.78;13.32;;;;;;;;;;5072213;28;20039;-57
2024/02/13 01:37:27;;;;;;;33.05;14.18;;;;;;;;;;5071344;28;20055;-58
2024/02/13 01:39:53;;;;;;;32.55;14.20;;;;;;;;;;5071103;28;20476;-56
2024/02/13 01:42:19;;;;;;;32.67;14.32;;;;;;;;;;5074624;28;20427;-59
2024/02/13 01:44:45;;;;;;;28.42;12.98;;;;;;;;;;5067418;28;20032;-57
2024/02/13 01:47:12;;;;;;;34.50;13.95;;;;;;;;;;5071831;28;20481;-57
2024/02/13 01:49:38;;;;;;;38.40;14.73;;;;;;;;;;5074067;28;20031;-57
2024/02/13 01:52:05;;;;;;;35.42;15.05;;;;;;;;;;5074577;28;20422;-56
2024/02/13 01:54:31;;;;;;;33.88;15.02;;;;;;;;;;5074482;28;20433;-57
2024/02/13 01:56:59;;;;;;;34.33;14.43;;;;;;;;;;5074937;28;20467;-58
2024/02/13 01:59:25;;;;;;;35.63;14.20;;;;;;;;;;5077689;28;20027;-56
2024/02/13 02:01:51;;;;;;;31.02;13.32;;;;;;;;;;5073144;28;20067;-57
2024/02/13 02:04:18;;;;;;;32.40;13.27;;;;;;;;;;5073460;28;20039;-57
2024/02/13 02:06:44;;;;;;;36.83;15.00;;;;;;;;;;5074499;28;20068;-57
2024/02/13 02:09:10;;;;;;;33.15;14.70;;;;;;;;;;5073906;28;20077;-57
2024/02/13 02:11:36;;;;;;;30.98;13.35;;;;;;;;;;5076176;28;20035;-57
2024/02/13 02:14:03;;;;;;;34.90;13.93;;;;;;;;;;5075221;28;20517;-58
2024/02/13 02:16:29;;;;;;;29.25;12.30;;;;;;;;;;5072087;28;20075;-58
2024/02/13 02:18:57;;;;;;;25.90;12.13;;;;;;;;;;5073420;28;20064;-56
2024/02/13 02:21:23;;;;;;;27.17;12.40;;;;;;;;;;5073331;28;20032;-57
2024/02/13 02:23:49;;;;;;;27.83;13.32;;;;;;;;;;5073982;28;20025;-57
2024/02/13 02:26:15;;;;;;;30.70;12.52;;;;;;;;;;5078322;28;20170;-60
2024/02/13 02:28:43;;;;;;;26.65;10.93;;;;;;;;;;5089402;28;20032;-60
2024/02/13 02:31:11;;;;;;;29.60;12.35;;;;;;;;;;5073937;28;20029;-60
2024/02/13 02:33:37;;;;;;;26.35;12.15;;;;;;;;;;5082819;28;20028;-60
2024/02/13 02:36:03;;;;;;;28.20;12.27;;;;;;;;;;5074574;28;20051;-60
2024/02/13 02:38:29;;;;;;;24.85;10.75;;;;;;;;;;5073797;28;20032;-60
2024/02/13 02:40:55;;;;;;;27.02;11.73;;;;;;;;;;5073527;28;20024;-61
2024/02/13 02:43:21;;;;;;;22.00;10.60;;;;;;;;;;5072444;28;20029;-60
2024/02/13 02:45:47;;;;;;;18.13;8.38;;;;;;;;;;5073424;28;20035;-60
2024/02/13 02:48:14;;;;;;;25.52;10.40;;;;;;;;;;5073277;28;20484;-60
2024/02/13 02:50:40;;;;;;;20.75;9.63;;;;;;;;;;5083596;28;20028;-60
2024/02/13 02:53:06;;;;;;;23.95;9.20;;;;;;;;;;5093512;28;20031;-60
2024/02/13 02:55:32;;;;;;;17.85;8.65;;;;;;;;;;5079891;28;20058;-61
2024/02/13 02:57:58;;;;;;;24.08;8.90;;;;;;;;;;5085130;28;20032;-60
2024/02/13 03:00:24;;;;;;;20.08;8.65;;;;;;;;;;5076588;28;20029;-60
2024/02/13 03:02:50;;;;;;;18.70;8.05;;;;;;;;;;5071528;28;20166;-61
2024/02/13 03:05:18;;;;;;;16.95;7.88;;;;;;;;;;5073164;28;20029;-60
2024/02/13 03:07:45;;;;;;;15.65;7.43;;;;;;;;;;5072962;28;20406;-60
2024/02/13 03:10:11;;;;;;;16.13;7.85;;;;;;;;;;5073579;28;20590;-60
2024/02/13 03:12:38;;;;;;;19.33;8.27;;;;;;;;;;5073684;28;20032;-60
2024/02/13 03:15:04;;;;;;;18.52;7.20;;;;;;;;;;5073927;28;20511;-60
2024/02/13 03:17:31;;;;;;;16.85;8.30;;;;;;;;;;5071148;28;20120;-60
2024/02/13 03:19:57;;;;;;;17.95;7.15;;;;;;;;;;5072714;28;20472;-60
2024/02/13 03:22:25;;;;;;;17.77;7.30;;;;;;;;;;5073789;28;20035;-60
2024/02/13 03:24:51;;;;;;;12.13;6.07;;;;;;;;;;5076790;28;20099;-61
2024/02/13 03:27:17;;;;;;;13.85;6.50;;;;;;;;;;5080274;28;20491;-60
2024/02/13 03:29:43;;;;;;;13.55;6.70;;;;;;;;;;5075648;28;20434;-62
2024/02/13 03:32:09;;;;;;;12.52;5.72;;;;;;;;;;5071359;28;20033;-60
2024/02/13 03:34:35;;;;;;;15.20;6.25;;;;;;;;;;5068892;28;20081;-60
2024/02/13 03:37:02;;;;;;;10.50;5.43;;;;;;;;;;5071045;28;20028;-60
2024/02/13 03:39:28;;;;;;;15.45;6.05;;;;;;;;;;5066768;28;20055;-59
2024/02/13 03:41:55;;;;;;;13.05;5.85;;;;;;;;;;5072047;28;20111;-59
2024/02/13 03:44:22;;;;;;;13.88;5.82;;;;;;;;;;5072377;28;20020;-60
2024/02/13 03:46:48;;;;;;;12.05;5.55;;;;;;;;;;5072573;28;20039;-60
2024/02/13 03:49:15;;;;;;;14.38;5.07;;;;;;;;;;5090105;28;20024;-60
2024/02/13 03:51:41;;;;;;;16.38;5.40;;;;;;;;;;5075931;28;20491;-60
2024/02/13 03:54:08;;;;;;;8.07;4.60;;;;;;;;;;5073516;28;20025;-59
2024/02/13 03:56:37;;;;;;;8.73;4.82;;;;;;;;;;5071245;28;20029;-61
2024/02/13 03:59:03;;;;;;;10.45;4.95;;;;;;;;;;5073236;28;20103;-60
2024/02/13 04:01:29;;;;;;;8.55;5.05;;;;;;;;;;5076212;28;20089;-59
2024/02/13 04:03:55;;;;;;;10.93;4.75;;;;;;;;;;5069450;28;20052;-59
2024/02/13 04:06:21;;;;;;;8.35;3.78;;;;;;;;;;5072201;28;20029;-60
2024/02/13 04:08:47;;;;;;;10.02;3.92;;;;;;;;;;5072306;28;20062;-59
2024/02/13 04:11:16;;;;;;;7.75;4.22;;;;;;;;;;5072253;28;20036;-58
2024/02/13 04:13:42;;;;;;;9.18;4.20;;;;;;;;;;5075136;28;20028;-59
2024/02/13 04:16:08;;;;;;;8.57;3.75;;;;;;;;;;5092286;28;20048;-60
2024/02/13 04:18:34;;;;;;;7.53;3.97;;;;;;;;;;5092523;28;20036;-59
2024/02/13 04:21:00;;;;;;;5.65;2.95;;;;;;;;;;5076226;28;20062;-60
2024/02/13 04:23:29;;;;;;;5.20;3.17;;;;;;;;;;5071144;28;20104;-60
2024/02/13 04:25:55;;;;;;;6.15;3.75;;;;;;;;;;5071490;28;20056;-59
2024/02/13 04:28:22;;;;;;;6.25;3.67;;;;;;;;;;5071666;28;20492;-59
2024/02/13 04:30:48;;;;;;;8.15;3.38;;;;;;;;;;5054400;28;20033;-59
2024/02/13 04:33:14;;;;;;;6.05;3.45;;;;;;;;;;5071748;28;20039;-59
2024/02/13 04:35:40;;;;;;;5.30;3.53;;;;;;;;;;5070823;28;20043;-59
2024/02/13 04:38:09;;;;;;;9.65;3.70;;;;;;;;;;5071437;28;20103;-59
2024/02/13 04:40:34;;;;;;;10.35;3.78;;;;;;;;;;5071722;28;20125;-61
2024/02/13 04:43:01;;;;;;;8.20;4.25;;;;;;;;;;5070775;28;20020;-59
2024/02/13 04:45:27;;;;;;;8.50;3.78;;;;;;;;;;5071910;28;20032;-59
2024/02/13 04:47:53;;;;;;;6.32;4.00;;;;;;;;;;5072159;28;20033;-59
2024/02/13 04:50:19;;;;;;;6.78;3.55;;;;;;;;;;5071841;28;20047;-59
2024/02/13 04:52:45;;;;;;;7.13;3.78;;;;;;;;;;5070265;28;20033;-59
2024/02/13 04:55:11;;;;;;;11.27;4.57;;;;;;;;;;5071753;28;20029;-59
2024/02/13 04:57:38;;;;;;;9.50;3.75;;;;;;;;;;5071280;28;20021;-59
2024/02/13 05:00:14;;;;;;;6.10;3.85;;;;;;;;;;5071997;28;20017;-59
2024/02/13 05:02:46;;;;;;;7.70;3.72;;;;;;;;;;5066681;28;20025;-59
2024/02/13 05:07:56;;;;;;;9.00;4.38;;;;;;;;;;5075591;28;20502;-59
2024/02/13 05:10:22;;;;;;;8.45;4.35;;;;;;;;;;5073177;28;20024;-59
2024/02/13 05:12:48;;;;;;;10.10;5.03;;;;;;;;;;5075472;28;20047;-59
2024/02/13 05:15:15;;;;;;;11.50;4.88;;;;;;;;;;5074794;28;20480;-59
2024/02/13 05:17:41;;;;;;;10.07;4.97;;;;;;;;;;5074141;28;20124;-59
2024/02/13 05:20:11;;;;;;;12.95;4.93;;;;;;;;;;5070088;28;20471;-59
2024/02/13 05:22:37;;;;;;;13.45;5.28;;;;;;;;;;5072106;28;20032;-57
2024/02/13 05:25:03;;;;;;;12.15;5.50;;;;;;;;;;5070948;28;20021;-59
2024/02/13 05:27:29;;;;;;;11.30;6.97;;;;;;;;;;5086144;28;20035;-59
2024/02/13 05:29:56;;;;;;;11.07;5.90;;;;;;;;;;5076540;28;20033;-59
2024/02/13 05:32:22;;;;;;;11.98;6.20;;;;;;;;;;5071712;28;20040;-59
2024/02/13 05:34:48;;;;;;;7.55;5.03;;;;;;;;;;5072919;28;20037;-59
2024/02/13 05:37:14;;;;;;;10.55;5.05;;;;;;;;;;5074593;28;20033;-59
2024/02/13 05:39:43;;;;;;;13.95;5.72;;;;;;;;;;5070508;28;20021;-59
2024/02/13 05:42:09;;;;;;;10.75;6.05;;;;;;;;;;5073934;28;20048;-59
2024/02/13 05:44:35;;;;;;;16.95;5.95;;;;;;;;;;5074196;28;20025;-59
2024/02/13 05:47:02;;;;;;;10.45;5.35;;;;;;;;;;5071774;28;20039;-59
2024/02/13 05:49:28;;;;;;;10.02;5.45;;;;;;;;;;5073175;28;20494;-59
2024/02/13 05:51:55;;;;;;;10.77;5.88;;;;;;;;;;5072636;28;20028;-58
2024/02/13 05:54:21;;;;;;;11.05;6.03;;;;;;;;;;5073891;28;20074;-59
2024/02/13 05:56:47;;;;;;;14.55;5.43;;;;;;;;;;5073326;28;20097;-59
2024/02/13 05:59:14;;;;;;;13.05;5.53;;;;;;;;;;5073093;28;20020;-59
2024/02/13 06:01:42;;;;;;;12.15;5.25;;;;;;;;;;5073661;28;20404;-59
2024/02/13 06:04:08;;;;;;;13.68;7.28;;;;;;;;;;5067973;28;20078;-59
2024/02/13 06:06:36;;;;;;;13.88;6.93;;;;;;;;;;5067586;28;20036;-60
2024/02/13 06:09:02;;;;;;;10.75;5.57;;;;;;;;;;5073347;28;20035;-60
2024/02/13 06:11:29;;;;;;;10.10;5.72;;;;;;;;;;5067908;28;20167;-60
2024/02/13 06:13:54;;;;;;;11.00;5.60;;;;;;;;;;5073651;28;20106;-61
2024/02/13 06:16:20;;;;;;;8.20;5.30;;;;;;;;;;5076368;28;20058;-60
2024/02/13 06:18:47;;;;;;;9.32;5.38;;;;;;;;;;5071350;28;20130;-60
2024/02/13 06:21:13;;;;;;;14.02;6.00;;;;;;;;;;5073089;28;20391;-60
2024/02/13 06:23:41;;;;;;;11.98;5.40;;;;;;;;;;5068524;28;20025;-60
2024/02/13 06:26:07;;;;;;;11.75;5.38;;;;;;;;;;5071796;28;20039;-60
2024/02/13 06:28:33;;;;;;;11.73;5.88;;;;;;;;;;5072171;28;20468;-59
2024/02/13 06:31:00;;;;;;;9.88;4.72;;;;;;;;;;5083741;28;20423;-60
2024/02/13 06:33:26;;;;;;;9.90;5.55;;;;;;;;;;5073990;28;20111;-60
2024/02/13 06:35:52;;;;;;;9.25;5.10;;;;;;;;;;5074147;28;20104;-58
2024/02/13 06:38:18;;;;;;;11.93;5.60;;;;;;;;;;5071741;28;20021;-60
2024/02/13 06:40:44;;;;;;;15.73;7.18;;;;;;;;;;5072460;28;20032;-60
2024/02/13 06:43:10;;;;;;;13.05;5.68;;;;;;;;;;5069669;28;20029;-59
2024/02/13 06:45:35;;;;;;;14.25;6.75;;;;;;;;;;5069621;28;20070;-59
2024/02/13 06:48:02;;;;;;;12.45;6.05;;;;;;;;;;5073016;28;20027;-60
2024/02/13 06:50:28;;;;;;;12.55;6.60;;;;;;;;;;5072840;28;20021;-60
2024/02/13 06:52:55;;;;;;;13.27;6.75;;;;;;;;;;5072979;28;20048;-60
2024/02/13 06:55:21;;;;;;;14.65;6.82;;;;;;;;;;5071369;28;20062;-60
2024/02/13 06:57:48;;;;;;;14.38;7.15;;;;;;;;;;5072774;28;20063;-60
2024/02/13 07:00:14;;;;;;;13.25;7.00;;;;;;;;;;5070618;28;20029;-60
2024/02/13 07:02:43;;;;;;;14.27;7.05;;;;;;;;;;5072795;28;20032;-60
2024/02/13 07:05:10;;;;;;;16.13;8.20;;;;;;;;;;5070911;28;20035;-60
2024/02/13 07:07:37;;;;;;;14.65;7.28;;;;;;;;;;5072758;28;20048;-60
2024/02/13 07:10:04;;;;;;;16.45;7.07;;;;;;;;;;5072356;28;20037;-60
2024/02/13 07:12:29;;;;;;;11.43;6.50;;;;;;;;;;5072356;28;20103;-60
2024/02/13 07:14:56;;;;;;;16.58;6.78;;;;;;;;;;5072378;28;20025;-60
2024/02/13 07:17:22;;;;;;;15.88;7.25;;;;;;;;;;5070972;28;20131;-58
2024/02/13 07:19:48;;;;;;;14.60;7.05;;;;;;;;;;5070771;28;20471;-58
2024/02/13 07:22:14;;;;;;;12.75;6.43;;;;;;;;;;5072424;28;20472;-59
2024/02/13 07:24:40;;;;;;;12.20;6.45;;;;;;;;;;5071990;28;20040;-58
2024/02/13 07:27:10;;;;;;;11.55;6.80;;;;;;;;;;5072087;28;20024;-59
2024/02/13 07:29:40;;;;;;;15.80;6.72;;;;;;;;;;5072028;28;20091;-61
2024/02/13 07:32:10;;;;;;;17.38;7.45;;;;;;;;;;5072182;28;20053;-59
2024/02/13 07:34:39;;;;;;;13.68;7.38;;;;;;;;;;5072022;28;20024;-59
2024/02/13 07:37:07;;;;;;;18.35;8.13;;;;;;;;;;5069095;28;20413;-59
2024/02/13 07:39:33;;;;;;;15.77;7.93;;;;;;;;;;5071128;28;20373;-59
2024/02/13 07:41:59;;;;;;;18.17;8.55;;;;;;;;;;5071905;28;20021;-59
2024/02/13 07:44:27;;;;;;;16.95;8.60;;;;;;;;;;5071802;28;20017;-60
2024/02/13 07:46:56;;;;;;;18.67;9.30;;;;;;;;;;5071696;28;20033;-61
2024/02/13 07:49:22;;;;;;;19.50;8.57;;;;;;;;;;5071907;28;20063;-59
2024/02/13 07:51:48;;;;;;;18.10;8.85;;;;;;;;;;5071615;28;20021;-59
2024/02/13 07:54:14;;;;;;;18.08;8.75;;;;;;;;;;5070098;28;20115;-59
2024/02/13 07:56:41;;;;;;;18.88;8.43;;;;;;;;;;5071687;28;20412;-59
2024/02/13 07:59:07;;;;;;;20.63;8.90;;;;;;;;;;5071675;28;20471;-59
2024/02/13 08:01:33;;;;;;;20.08;9.85;;;;;;;;;;5070133;28;20454;-61
2024/02/13 08:04:00;;;;;;;21.33;8.90;;;;;;;;;;5071630;28;20465;-59
2024/02/13 08:06:26;;;;;;;18.65;8.65;;;;;;;;;;5069600;28;20024;-61
2024/02/13 08:08:52;;;;;;;15.32;8.98;;;;;;;;;;5071302;28;20032;-59
2024/02/13 08:11:19;;;;;;;19.90;8.30;;;;;;;;;;5071521;28;20020;-61
2024/02/13 08:13:46;;;;;;;18.42;8.20;;;;;;;;;;5071640;28;20158;-60
2024/02/13 08:16:13;;;;;;;17.92;8.30;;;;;;;;;;5071064;28;20056;-61
2024/02/13 08:18:40;;;;;;;16.77;9.25;;;;;;;;;;5071879;28;20029;-61
2024/02/13 08:21:06;;;;;;;19.02;8.70;;;;;;;;;;5069594;28;20021;-61
2024/02/13 08:23:35;;;;;;;16.30;7.93;;;;;;;;;;5071121;28;20028;-61
2024/02/13 08:26:01;;;;;;;17.23;7.63;;;;;;;;;;5071129;28;20036;-58
2024/02/13 08:28:27;;;;;;;16.00;7.88;;;;;;;;;;5071393;28;20032;-61
2024/02/13 08:30:53;;;;;;;18.98;8.25;;;;;;;;;;5071020;28;20032;-60
2024/02/13 08:33:21;;;;;;;17.58;7.78;;;;;;;;;;5071259;28;20472;-59
2024/02/13 08:35:49;;;;;;;20.05;8.43;;;;;;;;;;5071005;28;20032;-60
2024/02/13 08:38:17;;;;;;;15.93;8.00;;;;;;;;;;5070059;28;20655;-58
2024/02/13 08:40:43;;;;;;;18.60;8.23;;;;;;;;;;5071204;28;20024;-58
2024/02/13 08:43:10;;;;;;;18.48;7.85;;;;;;;;;;5071357;28;20431;-59
2024/02/13 08:45:37;;;;;;;15.25;8.32;;;;;;;;;;5071111;28;20020;-57
2024/02/13 08:48:04;;;;;;;15.70;8.30;;;;;;;;;;5071072;28;20064;-58
2024/02/13 08:50:31;;;;;;;16.80;7.28;;;;;;;;;;5073512;28;20028;-58
2024/02/13 08:52:57;;;;;;;14.07;7.50;;;;;;;;;;5074148;28;20177;-57
2024/02/13 08:55:23;;;;;;;18.27;7.47;;;;;;;;;;5075123;28;20028;-58
2024/02/13 08:57:51;;;;;;;13.15;7.57;;;;;;;;;;5074965;28;20032;-58
2024/02/13 09:00:17;;;;;;;15.30;8.02;;;;;;;;;;5074840;28;20391;-58
2024/02/13 09:02:43;;;;;;;11.88;7.22;;;;;;;;;;5074895;28;20032;-58
2024/02/13 09:05:12;;;;;;;14.23;6.07;;;;;;;;;;5074591;28;20087;-57
2024/02/13 09:07:38;;;;;;;13.82;6.90;;;;;;;;;;5073462;28;20364;-57
2024/02/13 09:10:05;;;;;;;19.20;7.78;;;;;;;;;;5074857;28;20039;-57
2024/02/13 09:12:31;;;;;;;16.05;7.78;;;;;;;;;;5074854;28;20039;-58
2024/02/13 09:14:58;;;;;;;13.27;7.00;;;;;;;;;;5073256;28;20037;-57
2024/02/13 09:17:24;;;;;;;12.43;6.22;;;;;;;;;;5074389;28;20271;-57
2024/02/13 09:19:50;;;;;;;15.30;6.32;;;;;;;;;;5074365;28;20043;-57
2024/02/13 09:22:16;;;;;;;9.63;5.93;;;;;;;;;;5074507;28;20024;-58
2024/02/13 09:24:49;;;;;;;10.95;5.40;;;;;;;;;;5074553;28;20021;-57
2024/02/13 09:27:15;;;;;;;;;;;;;;;;;;5074853;28;20029;-58
2024/02/13 09:29:43;;;;;;;11.77;5.63;;;;;;;;;;5072819;28;19915;-58
2024/02/13 09:32:10;;;;;;;14.18;5.50;;;;;;;;;;5073999;28;20056;-58
2024/02/13 09:34:37;;;;;;;17.95;5.90;;;;;;;;;;5071396;28;20032;-58
2024/02/13 09:37:03;;;;;;;12.77;5.60;;;;;;;;;;5074348;28;20028;-61
2024/02/13 09:39:29;;;;;;;11.27;4.97;;;;;;;;;;5074356;28;20032;-61
2024/02/13 09:41:56;;;;;;;8.45;4.60;;;;;;;;;;5074115;28;20386;-61
2024/02/13 09:44:23;;;;;;;7.38;4.25;;;;;;;;;;5072625;28;20021;-61
2024/02/13 09:46:53;;;;;;;8.55;4.05;;;;;;;;;;5072183;28;20035;-60
2024/02/13 09:49:21;;;;;;;9.15;4.35;;;;;;;;;;5074313;28;20064;-62
2024/02/13 09:51:49;;;;;;;6.45;3.92;;;;;;;;;;5074084;28;20487;-61
2024/02/13 09:54:16;;;;;;;8.95;3.95;;;;;;;;;;5074073;28;20085;-61
2024/02/13 09:56:42;;;;;;;6.95;4.00;;;;;;;;;;5073774;28;20024;-61
2024/02/13 09:59:11;;;;;;;10.75;3.97;;;;;;;;;;5073737;28;20031;-61
2024/02/13 10:01:38;;;;;;;8.60;3.15;;;;;;;;;;5071305;28;20027;-61
2024/02/13 10:04:04;;;;;;;9.27;3.45;;;;;;;;;;5073748;28;20553;-63
2024/02/13 10:06:30;;;;;;;7.72;3.40;;;;;;;;;;5072097;28;20027;-61
2024/02/13 10:08:56;;;;;;;5.57;2.90;;;;;;;;;;5072349;28;20037;-61
2024/02/13 10:11:31;;;;;;;11.65;2.90;;;;;;;;;;5073540;28;20028;-61
2024/02/13 10:13:57;;;;;;;8.93;2.67;;;;;;;;;;5073528;28;20032;-61
2024/02/13 10:16:28;;;;;;;6.50;3.25;;;;;;;;;;5073417;28;20445;-61
2024/02/13 10:18:57;;;;;;;7.72;3.10;;;;;;;;;;5072034;28;20487;-61
2024/02/13 10:21:25;;;;;;;7.72;3.05;;;;;;;;;;5073500;28;20020;-61
2024/02/13 10:23:53;;;;;;;9.05;3.05;;;;;;;;;;5073449;28;20013;-61
2024/02/13 10:26:19;;;;;;;4.70;2.75;;;;;;;;;;5073100;28;20547;-61
2024/02/13 10:28:54;;;;;;;9.23;2.70;;;;;;;;;;5073205;28;20115;-61
2024/02/13 10:31:26;;;;;;;7.05;3.08;;;;;;;;;;5060668;28;20025;-61
2024/02/13 10:33:54;;;;;;;3.83;2.30;;;;;;;;;;5068606;28;20037;-61
2024/02/13 10:36:20;;;;;;;6.45;2.38;;;;;;;;;;5073392;28;20099;-61
2024/02/13 10:38:49;;;;;;;9.70;2.53;;;;;;;;;;5072726;28;20025;-61
2024/02/13 10:41:22;;;;;;;6.07;2.97;;;;;;;;;;5073443;28;20039;-60
2024/02/13 10:43:51;;;;;;;9.02;2.53;;;;;;;;;;5073054;28;20480;-61
2024/02/13 10:46:19;;;;;;;2.45;1.63;;;;;;;;;;5073080;28;20111;-62
2024/02/13 10:48:50;;;;;;;5.65;1.85;;;;;;;;;;5071482;28;20050;-62
2024/02/13 10:51:17;;;;;;;5.70;1.42;;;;;;;;;;5072592;28;20029;-61
2024/02/13 10:53:43;;;;;;;5.68;2.00;;;;;;;;;;5073013;28;20060;-62
2024/02/13 10:56:10;;;;;;;4.75;2.17;;;;;;;;;;5072844;28;20502;-61
2024/02/13 10:58:37;;;;;;;5.30;1.80;;;;;;;;;;5072659;28;20024;-61
2024/02/13 11:01:04;;;;;;;7.88;1.63;;;;;;;;;;5072585;28;20024;-62
2024/02/13 11:03:31;;;;;;;5.32;1.73;;;;;;;;;;5072614;28;20480;-62
2024/02/13 11:05:57;;;;;;;4.85;1.73;;;;;;;;;;5072400;28;20021;-61
2024/02/13 11:08:23;;;;;;;4.43;1.65;;;;;;;;;;5069847;28;20027;-61
2024/02/13 11:10:49;;;;;;;10.13;2.15;;;;;;;;;;5072045;28;20048;-62
2024/02/13 11:13:18;;;;;;;5.10;1.90;;;;;;;;;;5072356;28;20468;-62
2024/02/13 11:15:44;;;;;;;5.65;1.58;;;;;;;;;;5072313;28;20515;-62
2024/02/13 11:18:13;;;;;;;3.22;1.45;;;;;;;;;;5072289;28;20028;-62
2024/02/13 11:20:43;;;;;;;2.85;1.30;;;;;;;;;;5072046;28;20064;-63
2024/02/13 11:23:16;;;;;;;5.28;1.20;;;;;;;;;;5072089;28;20031;-63
2024/02/13 11:25:57;;;;;;;3.05;1.17;;;;;;;;;;5069456;28;20036;-63
2024/02/13 11:28:24;;;;;;;3.47;1.40;;;;;;;;;;5072149;28;20028;-63
2024/02/13 11:30:50;;;;;;;5.05;1.65;;;;;;;;;;5071878;28;20029;-63
2024/02/13 11:33:19;;;;;;;3.78;1.23;;;;;;;;;;5071989;28;20434;-64
2024/02/13 11:35:47;;;;;;;4.15;1.35;;;;;;;;;;5072086;28;20499;-64
2024/02/13 11:38:15;;;;;;;2.20;0.80;;;;;;;;;;5071801;28;20029;-63
2024/02/13 11:40:42;;;;;;;2.35;1.08;;;;;;;;;;5072057;28;20028;-64
2024/02/13 11:43:28;;;;;;;5.68;1.42;;;;;;;;;;5070399;28;20035;-64
2024/02/13 11:45:57;;;;;;;4.03;1.10;;;;;;;;;;5071881;28;20020;-64
2024/02/13 11:48:26;;;;;;;4.68;1.35;;;;;;;;;;5071892;28;20059;-64
2024/02/13 11:50:55;;;;;;;2.63;0.80;;;;;;;;;;5074014;28;20035;-64
2024/02/13 11:53:21;;;;;;;4.60;1.10;;;;;;;;;;5072103;28;20082;-64
2024/02/13 11:55:47;;;;;;;4.10;1.23;;;;;;;;;;5074668;28;20418;-64
2024/02/13 11:58:22;;;;;;;4.63;0.90;;;;;;;;;;5071929;28;20024;-62
2024/02/13 12:01:05;;;;;;;3.20;1.33;;;;;;;;;;5064306;28;20494;-62
2024/02/13 12:03:32;;;;;;;6.28;1.17;;;;;;;;;;5071645;28;20100;-61
2024/02/13 12:06:00;;;;;;;1.63;0.73;;;;;;;;;;5071504;28;20033;-58
2024/02/13 12:08:26;;;;;;;6.95;1.35;;;;;;;;;;5071189;28;20533;-60
2024/02/13 12:10:53;;;;;;;1.50;0.80;;;;;;;;;;5072086;28;20480;-60
2024/02/13 12:13:20;;;;;;;1.42;0.73;;;;;;;;;;5073131;28;20484;-60
2024/02/13 12:15:47;;;;;;;2.75;0.90;;;;;;;;;;5071296;28;20141;-60
2024/02/13 12:18:13;;;;;;;7.25;1.02;;;;;;;;;;5071351;28;20032;-60
2024/02/13 12:20:39;;;;;;;2.45;0.70;;;;;;;;;;5071418;28;20063;-60
2024/02/13 12:23:12;;;;;;;2.08;0.73;;;;;;;;;;5069639;28;20434;-61
2024/02/13 12:25:41;;;;;;;2.13;0.70;;;;;;;;;;5070767;28;20052;-61
2024/02/13 12:28:07;;;;;;;1.85;0.68;;;;;;;;;;5071193;28;20058;-61
2024/02/13 12:30:36;;;;;;;3.72;0.70;;;;;;;;;;5071261;28;20424;-58
2024/02/13 12:33:06;;;;;;;5.20;1.38;;;;;;;;;;5071343;28;20040;-61
2024/02/13 12:35:32;;;;;;;4.18;0.80;;;;;;;;;;5071043;28;20028;-58
2024/02/13 12:38:12;;;;;;;4.97;0.80;;;;;;;;;;5071224;28;20064;-58
2024/02/13 12:40:38;;;;;;;3.35;0.75;;;;;;;;;;5068036;28;20047;-58
2024/02/13 12:43:04;;;;;;;1.65;0.80;;;;;;;;;;5069950;28;20032;-60
2024/02/13 12:45:38;;;;;;;3.80;1.10;;;;;;;;;;5057780;28;20480;-58
2024/02/13 12:48:04;;;;;;;4.00;0.85;;;;;;;;;;5069232;28;20369;-58
2024/02/13 12:50:30;;;;;;;4.97;1.05;;;;;;;;;;5070000;28;20089;-58
2024/02/13 12:52:56;;;;;;;5.25;1.27;;;;;;;;;;5069096;28;20024;-58
2024/02/13 12:55:25;;;;;;;3.25;1.10;;;;;;;;;;5069771;28;20031;-58
2024/02/13 12:57:54;;;;;;;2.40;0.93;;;;;;;;;;5070893;28;20070;-58
2024/02/13 13:00:22;;;;;;;4.65;1.02;;;;;;;;;;5071036;28;20488;-59
2024/02/13 13:02:48;;;;;;;1.73;0.63;;;;;;;;;;5066324;28;20032;-58
2024/02/13 13:05:14;;;;;;;2.00;0.88;;;;;;;;;;5069210;28;20476;-58
2024/02/13 13:07:42;;;;;;;3.15;0.95;;;;;;;;;;5071125;28;20108;-63
2024/02/13 13:10:13;;;;;;;5.60;1.23;;;;;;;;;;5070846;28;20348;-65
2024/02/13 13:12:39;;;;;;;2.97;1.00;;;;;;;;;;5064939;28;20103;-65
2024/02/13 13:15:06;;;;;;;5.80;1.30;;;;;;;;;;5072678;28;20039;-65
2024/02/13 13:17:33;;;;;;;2.28;0.80;;;;;;;;;;5070372;28;20045;-60
2024/02/13 13:19:59;;;;;;;3.47;1.02;;;;;;;;;;5073996;28;20024;-59
2024/02/13 13:22:26;;;;;;;5.18;1.13;;;;;;;;;;5069744;28;20044;-59
2024/02/13 13:24:52;;;;;;;7.88;1.27;;;;;;;;;;5075149;28;20124;-60
2024/02/13 13:27:20;;;;;;;3.33;1.00;;;;;;;;;;5069425;28;20107;-60
2024/02/13 13:29:46;;;;;;;2.38;0.85;;;;;;;;;;5076240;28;20032;-59
2024/02/13 13:32:14;;;;;;;4.35;1.20;;;;;;;;;;5071491;28;20031;-60
2024/02/13 13:34:43;;;;;;;2.35;1.25;;;;;;;;;;5070689;28;20594;-59
2024/02/13 13:37:10;;;;;;;7.65;1.40;;;;;;;;;;5071888;28;20042;-60
2024/02/13 13:39:36;;;;;;;3.97;1.23;;;;;;;;;;5074606;28;20028;-60
2024/02/13 13:42:09;;;;;;;3.60;1.20;;;;;;;;;;5073305;28;20028;-59
2024/02/13 13:44:35;;;;;;;3.72;1.50;;;;;;;;;;5074050;28;20032;-59
2024/02/13 13:47:01;;;;;;;2.72;1.30;;;;;;;;;;5072427;28;20452;-60
2024/02/13 13:49:27;;;;;;;3.00;0.80;;;;;;;;;;5071145;28;20364;-59
2024/02/13 13:51:53;;;;;;;4.63;1.42;;;;;;;;;;5073913;28;20029;-59
2024/02/13 13:54:20;;;;;;;6.10;1.42;;;;;;;;;;5074137;28;20246;-60
2024/02/13 13:56:46;;;;;;;3.20;1.15;;;;;;;;;;5074127;28;20021;-59
2024/02/13 13:59:12;;;;;;;5.63;1.60;;;;;;;;;;5077205;28;20368;-60
2024/02/13 14:01:38;;;;;;;5.32;1.63;;;;;;;;;;5074649;28;20024;-59
2024/02/13 14:04:07;;;;;;;3.25;1.38;;;;;;;;;;5067776;28;20104;-60
2024/02/13 14:06:34;;;;;;;4.88;1.58;;;;;;;;;;5071032;28;20056;-59
2024/02/13 14:09:00;;;;;;;3.67;1.65;;;;;;;;;;5073619;28;20071;-59
2024/02/13 14:11:27;;;;;;;3.45;1.55;;;;;;;;;;5071410;28;20487;-60
2024/02/13 14:13:53;;;;;;;3.33;1.60;;;;;;;;;;5077427;28;20024;-60
2024/02/13 14:16:19;;;;;;;2.72;1.40;;;;;;;;;;5074607;28;20055;-63
2024/02/13 14:18:45;;;;;;;6.43;1.70;;;;;;;;;;5074802;28;20036;-64
2024/02/13 14:21:12;;;;;;;6.30;1.40;;;;;;;;;;5077724;28;20384;-63
2024/02/13 14:23:40;;;;;;;6.60;1.85;;;;;;;;;;5071021;28;20031;-64
2024/02/13 14:26:06;;;;;;;8.00;1.63;;;;;;;;;;5073523;28;20120;-61
2024/02/13 14:28:32;;;;;;;7.97;2.05;;;;;;;;;;5073121;28;20029;-61
2024/02/13 14:30:58;;;;;;;7.50;2.15;;;;;;;;;;5077635;28;20028;-61
2024/02/13 14:33:24;;;;;;;6.18;1.67;;;;;;;;;;5073757;28;20487;-61
2024/02/13 14:35:50;;;;;;;2.97;1.63;;;;;;;;;;5069748;28;20035;-61